createdAt,value
2019-06-20T00:00:48.205Z,0.00
2019-06-20T00:01:48.239Z,0.00
2019-06-20T00:02:48.276Z,0.00
2019-06-20T00:03:48.312Z,0.00
2019-06-20T00:04:48.348Z,0.00
2019-06-20T00:05:48.385Z,0.00
2019-06-20T00:06:48.420Z,0.00
2019-06-20T00:07:48.455Z,0.00
2019-06-20T00:08:48.504Z,0.00
2019-06-20T00:09:48.527Z,0.00
2019-06-20T00:10:48.564Z,0.00
2019-06-20T00:11:48.604Z,0.00
2019-06-20T00:12:59.796Z,0.00
2019-06-20T00:13:48.672Z,0.00
2019-06-20T00:14:48.706Z,0.00
2019-06-20T00:15:48.744Z,0.00
2019-06-20T00:16:48.780Z,0.00
2019-06-20T00:17:48.815Z,0.00
2019-06-20T00:18:48.855Z,0.00
2019-06-20T00:19:48.890Z,4.00
2019-06-20T00:20:48.927Z,4.00
2019-06-20T00:21:48.963Z,4.00
2019-06-20T00:22:49.029Z,4.00
2019-06-20T00:23:49.035Z,4.00
2019-06-20T00:24:49.073Z,4.00
2019-06-20T00:25:49.111Z,0.00
2019-06-20T00:26:49.214Z,0.00
2019-06-20T00:27:49.183Z,4.00
2019-06-20T00:28:49.222Z,4.00
2019-06-20T00:29:49.256Z,4.00
2019-06-20T00:30:49.292Z,4.00
2019-06-20T00:31:49.336Z,4.00
2019-06-20T00:32:49.370Z,4.00
2019-06-20T00:33:49.410Z,4.00
2019-06-20T00:34:49.453Z,4.00
2019-06-20T00:35:49.477Z,4.00
2019-06-20T00:36:51.373Z,8.00
2019-06-20T00:37:49.554Z,4.00
2019-06-20T00:38:49.589Z,4.00
2019-06-20T00:39:49.630Z,8.00
2019-06-20T00:40:49.664Z,8.00
2019-06-20T00:41:49.700Z,8.00
2019-06-20T00:42:49.739Z,8.00
2019-06-20T00:43:49.774Z,8.00
2019-06-20T00:44:49.812Z,12.00
2019-06-20T00:45:49.849Z,8.00
2019-06-20T00:46:49.892Z,12.00
2019-06-20T00:47:49.926Z,12.00
2019-06-20T00:48:49.966Z,16.00
2019-06-20T00:49:50.000Z,16.00
2019-06-20T00:50:50.039Z,16.00
2019-06-20T00:51:50.073Z,20.00
2019-06-20T00:52:50.112Z,20.00
2019-06-20T00:53:50.153Z,20.00
2019-06-20T00:54:50.184Z,24.00
2019-06-20T00:55:50.227Z,24.00
2019-06-20T00:56:50.263Z,24.00
2019-06-20T00:57:50.295Z,28.00
2019-06-20T00:58:50.333Z,32.00
2019-06-20T00:59:50.369Z,32.00
2019-06-20T01:00:50.408Z,36.00
2019-06-20T01:01:50.447Z,40.00
2019-06-20T01:02:50.544Z,44.00
2019-06-20T01:03:50.525Z,44.00
2019-06-20T01:04:50.557Z,48.00
2019-06-20T01:05:50.593Z,52.00
2019-06-20T01:06:50.634Z,56.00
2019-06-20T01:07:50.671Z,60.00
2019-06-20T01:08:50.707Z,64.00
2019-06-20T01:09:50.744Z,72.00
2019-06-20T01:10:50.785Z,76.00
2019-06-20T01:11:50.821Z,84.00
2019-06-20T01:12:50.855Z,88.00
2019-06-20T01:13:52.876Z,96.00
2019-06-20T01:14:50.932Z,104.00
2019-06-20T01:15:50.969Z,108.00
2019-06-20T01:16:51.003Z,116.00
2019-06-20T01:17:51.043Z,120.00
2019-06-20T01:18:51.079Z,132.00
2019-06-20T01:19:51.115Z,140.00
2019-06-20T01:20:51.159Z,152.00
2019-06-20T01:21:51.194Z,156.00
2019-06-20T01:22:51.230Z,164.00
2019-06-20T01:23:51.267Z,176.00
2019-06-20T01:24:51.302Z,184.00
2019-06-20T01:25:51.339Z,196.00
2019-06-20T01:26:51.376Z,208.00
2019-06-20T01:27:51.417Z,220.00
2019-06-20T01:28:51.451Z,232.00
2019-06-20T01:29:51.490Z,248.00
2019-06-20T01:30:51.532Z,260.00
2019-06-20T01:31:51.580Z,272.00
2019-06-20T01:32:51.603Z,292.00
2019-06-20T01:33:51.638Z,304.00
2019-06-20T01:34:51.676Z,320.00
2019-06-20T01:35:51.724Z,336.00
2019-06-20T01:36:51.751Z,356.00
2019-06-20T01:37:51.787Z,376.00
2019-06-20T01:38:51.824Z,392.00
2019-06-20T01:39:51.863Z,416.00
2019-06-20T01:40:51.901Z,436.00
2019-06-20T01:41:51.937Z,464.00
2019-06-20T01:42:51.977Z,492.00
2019-06-20T01:43:52.012Z,520.00
2019-06-20T01:44:52.053Z,548.00
2019-06-20T01:45:52.087Z,588.00
2019-06-20T01:46:52.138Z,624.00
2019-06-20T01:47:52.165Z,656.00
2019-06-20T01:48:52.201Z,688.00
2019-06-20T01:49:52.240Z,724.00
2019-06-20T01:50:52.274Z,756.00
2019-06-20T01:51:52.310Z,784.00
2019-06-20T01:52:52.353Z,816.00
2019-06-20T01:53:52.387Z,844.00
2019-06-20T01:54:52.422Z,880.00
2019-06-20T01:55:52.460Z,916.00
2019-06-20T01:56:52.520Z,952.00
2019-06-20T01:57:52.534Z,992.00
2019-06-20T01:58:52.574Z,1028.00
2019-06-20T01:59:52.609Z,1072.00
2019-06-20T02:00:52.648Z,1120.00
2019-06-20T02:01:52.685Z,1168.00
2019-06-20T02:02:52.740Z,1216.00
2019-06-20T02:03:52.760Z,1264.00
2019-06-20T02:04:52.798Z,1320.00
2019-06-20T02:05:52.835Z,1368.00
2019-06-20T02:06:52.878Z,1420.00
2019-06-20T02:07:52.912Z,1460.00
2019-06-20T02:08:52.949Z,1500.00
2019-06-20T02:09:52.989Z,1548.00
2019-06-20T02:10:53.022Z,1592.00
2019-06-20T02:11:53.061Z,1640.00
2019-06-20T02:12:53.104Z,1700.00
2019-06-20T02:14:06.381Z,1752.00
2019-06-20T02:14:53.176Z,1816.00
2019-06-20T02:15:53.209Z,1872.00
2019-06-20T02:16:53.248Z,1932.00
2019-06-20T02:17:53.284Z,2004.00
2019-06-20T02:18:53.323Z,2072.00
2019-06-20T02:19:53.360Z,2140.00
2019-06-20T02:20:53.402Z,2212.00
2019-06-20T02:21:53.435Z,2300.00
2019-06-20T02:22:53.473Z,2380.00
2019-06-20T02:23:53.510Z,2440.00
2019-06-20T02:24:53.548Z,2504.00
2019-06-20T02:25:53.586Z,2564.00
2019-06-20T02:26:53.624Z,2620.00
2019-06-20T02:27:53.663Z,2680.00
2019-06-20T02:28:53.698Z,2740.00
2019-06-20T02:29:53.735Z,2800.00
2019-06-20T02:30:53.775Z,2860.00
2019-06-20T02:31:53.817Z,2920.00
2019-06-20T02:32:53.852Z,2984.00
2019-06-20T02:33:53.886Z,3056.00
2019-06-20T02:34:53.928Z,3128.00
2019-06-20T02:35:53.972Z,3192.00
2019-06-20T02:36:54.021Z,3256.00
2019-06-20T02:37:54.041Z,3308.00
2019-06-20T02:38:54.079Z,3356.00
2019-06-20T02:39:54.115Z,3396.00
2019-06-20T02:40:54.151Z,3412.00
2019-06-20T02:41:54.190Z,3420.00
2019-06-20T02:42:54.235Z,3492.00
2019-06-20T02:43:54.265Z,3484.00
2019-06-20T02:44:54.304Z,3528.00
2019-06-20T02:45:54.342Z,3636.00
2019-06-20T02:46:54.379Z,3664.00
2019-06-20T02:47:54.423Z,3708.00
2019-06-20T02:48:54.458Z,3768.00
2019-06-20T02:49:54.495Z,3828.00
2019-06-20T02:50:54.529Z,3892.00
2019-06-20T02:51:54.573Z,3960.00
2019-06-20T02:52:54.614Z,4032.00
2019-06-20T02:53:54.645Z,4096.00
2019-06-20T02:54:54.683Z,4180.00
2019-06-20T02:55:54.720Z,4272.00
2019-06-20T02:56:54.765Z,4380.00
2019-06-20T02:57:54.798Z,4500.00
2019-06-20T02:58:54.838Z,4668.00
2019-06-20T02:59:54.873Z,4764.00
2019-06-20T03:00:54.915Z,4944.00
2019-06-20T03:01:54.952Z,5024.00
2019-06-20T03:02:54.988Z,5388.00
2019-06-20T03:03:55.026Z,5304.00
2019-06-20T03:04:55.066Z,5344.00
2019-06-20T03:05:55.105Z,5436.00
2019-06-20T03:06:55.142Z,5532.00
2019-06-20T03:07:55.188Z,5592.00
2019-06-20T03:08:55.219Z,5700.00
2019-06-20T03:09:55.258Z,5788.00
2019-06-20T03:10:55.296Z,5900.00
2019-06-20T03:11:55.336Z,6080.00
2019-06-20T03:12:55.374Z,6204.00
2019-06-20T03:13:55.413Z,6236.00
2019-06-20T03:14:55.451Z,6220.00
2019-06-20T03:15:55.489Z,6228.00
2019-06-20T03:16:55.527Z,6292.00
2019-06-20T03:17:55.567Z,6328.00
2019-06-20T03:18:55.609Z,6420.00
2019-06-20T03:19:55.642Z,6488.00
2019-06-20T03:20:55.683Z,6504.00
2019-06-20T03:21:55.724Z,6628.00
2019-06-20T03:22:55.760Z,6864.00
2019-06-20T03:23:55.820Z,7148.00
2019-06-20T03:24:55.840Z,7488.00
2019-06-20T03:25:55.877Z,7904.00
2019-06-20T03:26:55.917Z,8260.00
2019-06-20T03:27:55.955Z,8576.00
2019-06-20T03:28:55.999Z,8864.00
2019-06-20T03:29:56.035Z,8948.00
2019-06-20T03:30:56.087Z,8756.00
2019-06-20T03:31:56.116Z,8260.00
2019-06-20T03:32:56.156Z,7652.00
2019-06-20T03:33:56.193Z,6984.00
2019-06-20T03:34:56.231Z,6488.00
2019-06-20T03:35:56.275Z,6244.00
2019-06-20T03:36:56.314Z,6048.00
2019-06-20T03:37:56.352Z,5884.00
2019-06-20T03:38:56.391Z,5692.00
2019-06-20T03:39:56.430Z,5440.00
2019-06-20T03:40:56.472Z,5164.00
2019-06-20T03:41:56.509Z,4948.00
2019-06-20T03:42:56.550Z,4752.00
2019-06-20T03:43:59.022Z,4756.00
2019-06-20T03:45:02.235Z,4860.00
2019-06-20T03:45:56.670Z,4972.00
2019-06-20T03:46:56.709Z,5104.00
2019-06-20T03:47:56.755Z,5320.00
2019-06-20T03:48:56.791Z,5608.00
2019-06-20T03:49:56.829Z,5956.00
2019-06-20T03:50:56.869Z,6264.00
2019-06-20T03:51:56.909Z,6504.00
2019-06-20T03:52:56.960Z,6752.00
2019-06-20T03:53:56.990Z,6760.00
2019-06-20T03:54:57.030Z,6636.00
2019-06-20T03:55:57.072Z,6592.00
2019-06-20T03:56:57.111Z,6356.00
2019-06-20T03:57:57.148Z,6400.00
2019-06-20T03:58:57.191Z,6140.00
2019-06-20T03:59:57.225Z,6288.00
2019-06-20T04:00:57.271Z,6028.00
2019-06-20T04:01:57.305Z,5772.00
2019-06-20T04:02:57.345Z,5728.00
2019-06-20T04:03:57.391Z,6116.00
2019-06-20T04:04:57.429Z,6320.00
2019-06-20T04:05:57.478Z,6636.00
2019-06-20T04:06:57.503Z,7216.00
2019-06-20T04:07:57.542Z,7248.00
2019-06-20T04:08:57.582Z,6680.00
2019-06-20T04:09:57.632Z,6848.00
2019-06-20T04:10:57.664Z,6384.00
2019-06-20T04:11:57.703Z,6772.00
2019-06-20T04:12:57.742Z,6668.00
2019-06-20T04:13:57.781Z,6836.00
2019-06-20T04:14:57.823Z,6880.00
2019-06-20T04:15:57.871Z,6876.00
2019-06-20T04:16:57.902Z,6956.00
2019-06-20T04:17:57.939Z,7404.00
2019-06-20T04:18:57.980Z,7356.00
2019-06-20T04:19:58.017Z,8400.00
2019-06-20T04:20:58.059Z,8268.00
2019-06-20T04:21:58.097Z,7408.00
2019-06-20T04:22:58.140Z,8524.00
2019-06-20T04:23:58.177Z,9156.00
2019-06-20T04:24:58.218Z,8904.00
2019-06-20T04:25:58.258Z,9068.00
2019-06-20T04:26:58.299Z,8576.00
2019-06-20T04:27:58.340Z,8100.00
2019-06-20T04:28:58.378Z,8604.00
2019-06-20T04:29:58.418Z,9516.00
2019-06-20T04:30:58.457Z,10616.00
2019-06-20T04:31:58.554Z,10760.00
2019-06-20T04:32:58.540Z,10820.00
2019-06-20T04:33:58.579Z,11132.00
2019-06-20T04:34:58.620Z,11120.00
2019-06-20T04:35:58.663Z,10844.00
2019-06-20T04:36:58.705Z,9996.00
2019-06-20T04:37:58.756Z,9840.00
2019-06-20T04:38:58.794Z,10716.00
2019-06-20T04:39:58.830Z,10888.00
2019-06-20T04:40:58.869Z,12596.00
2019-06-20T04:41:58.912Z,12172.00
2019-06-20T04:42:58.957Z,12804.00
2019-06-20T04:43:58.998Z,12384.00
2019-06-20T04:44:59.041Z,13024.00
2019-06-20T04:45:59.083Z,13052.00
2019-06-20T04:46:59.124Z,13152.00
2019-06-20T04:47:59.165Z,13344.00
2019-06-20T04:48:59.210Z,13716.00
2019-06-20T04:49:59.251Z,13908.00
2019-06-20T04:50:59.296Z,14000.00
2019-06-20T04:51:59.339Z,14036.00
2019-06-20T04:52:59.382Z,13496.00
2019-06-20T04:53:59.425Z,12384.00
2019-06-20T04:54:59.471Z,12340.00
2019-06-20T04:55:59.512Z,12392.00
2019-06-20T04:56:59.559Z,13148.00
2019-06-20T04:57:59.601Z,9848.00
2019-06-20T04:58:59.647Z,10176.00
2019-06-20T04:59:59.704Z,11124.00
2019-06-20T05:00:59.741Z,13840.00
2019-06-20T05:01:59.778Z,12520.00
2019-06-20T05:02:59.824Z,13356.00
2019-06-20T05:03:59.872Z,15380.00
2019-06-20T05:04:59.912Z,13908.00
2019-06-20T05:05:59.956Z,14724.00
2019-06-20T05:07:00.000Z,15840.00
2019-06-20T05:08:00.046Z,16416.00
2019-06-20T05:09:00.091Z,16640.00
2019-06-20T05:10:00.171Z,16608.00
2019-06-20T05:11:00.185Z,16736.00
2019-06-20T05:12:00.268Z,16384.00
2019-06-20T05:13:00.272Z,16864.00
2019-06-20T05:14:00.317Z,17632.00
2019-06-20T05:15:00.364Z,17696.00
2019-06-20T05:16:00.409Z,17728.00
2019-06-20T05:17:00.456Z,18016.00
2019-06-20T05:18:00.503Z,18304.00
2019-06-20T05:19:00.550Z,14932.00
2019-06-20T05:20:00.594Z,13276.00
2019-06-20T05:21:00.640Z,15396.00
2019-06-20T05:22:00.690Z,14020.00
2019-06-20T05:23:00.732Z,17568.00
2019-06-20T05:24:01.015Z,19360.00
2019-06-20T05:25:00.829Z,22592.00
2019-06-20T05:26:00.870Z,24384.00
2019-06-20T05:27:00.917Z,23264.00
2019-06-20T05:28:00.962Z,24064.00
2019-06-20T05:29:01.010Z,26400.00
2019-06-20T05:30:01.057Z,22496.00
2019-06-20T05:31:01.107Z,27264.00
2019-06-20T05:32:01.151Z,22656.00
2019-06-20T05:33:01.200Z,21568.00
2019-06-20T05:34:01.249Z,26528.00
2019-06-20T05:35:03.123Z,24960.00
2019-06-20T05:36:01.342Z,23360.00
2019-06-20T05:37:01.390Z,23552.00
2019-06-20T05:38:01.437Z,21984.00
2019-06-20T05:39:01.488Z,22400.00
2019-06-20T05:40:01.567Z,21824.00
2019-06-20T05:41:01.581Z,22688.00
2019-06-20T05:42:01.632Z,22112.00
2019-06-20T05:43:01.687Z,22432.00
2019-06-20T05:44:01.726Z,28448.00
2019-06-20T05:45:01.777Z,27776.00
2019-06-20T05:46:09.237Z,27584.00
2019-06-20T05:47:12.544Z,27872.00
2019-06-20T05:48:01.921Z,27168.00
2019-06-20T05:49:01.971Z,21152.00
2019-06-20T05:50:02.052Z,21536.00
2019-06-20T05:51:02.067Z,20800.00
2019-06-20T05:52:02.118Z,21120.00
2019-06-20T05:53:02.166Z,21504.00
2019-06-20T05:54:02.218Z,22528.00
2019-06-20T05:55:02.263Z,20896.00
2019-06-20T05:56:02.315Z,21376.00
2019-06-20T05:57:03.740Z,22240.00
2019-06-20T05:58:02.411Z,23200.00
2019-06-20T05:59:02.461Z,24256.00
2019-06-20T06:00:02.513Z,25120.00
2019-06-20T06:01:02.556Z,25088.00
2019-06-20T06:02:02.625Z,25088.00
2019-06-20T06:03:06.834Z,32256.00
2019-06-20T06:04:02.757Z,24352.00
2019-06-20T06:05:02.750Z,24352.00
2019-06-20T06:06:02.795Z,26752.00
2019-06-20T06:07:02.843Z,22848.00
2019-06-20T06:08:03.786Z,22944.00
2019-06-20T06:09:02.939Z,23040.00
2019-06-20T06:10:04.051Z,23392.00
2019-06-20T06:11:03.036Z,23936.00
2019-06-20T06:12:03.081Z,24416.00
2019-06-20T06:13:03.186Z,25024.00
2019-06-20T06:14:03.180Z,24992.00
2019-06-20T06:15:03.226Z,25440.00
2019-06-20T06:16:03.331Z,25312.00
2019-06-20T06:17:03.635Z,26144.00
2019-06-20T06:18:03.364Z,25472.00
2019-06-20T06:19:03.409Z,24864.00
2019-06-20T06:20:03.460Z,24800.00
2019-06-20T06:21:03.503Z,25568.00
2019-06-20T06:22:03.557Z,23584.00
2019-06-20T06:23:03.598Z,23136.00
2019-06-20T06:24:03.645Z,25312.00
2019-06-20T06:25:03.691Z,24832.00
2019-06-20T06:26:03.736Z,27744.00
2019-06-20T06:27:03.785Z,33312.00
2019-06-20T06:28:03.830Z,32864.00
2019-06-20T06:29:03.878Z,24416.00
2019-06-20T06:30:03.921Z,29824.00
2019-06-20T06:31:03.978Z,26208.00
2019-06-20T06:32:04.016Z,32672.00
2019-06-20T06:33:04.083Z,24992.00
2019-06-20T06:34:04.111Z,37824.00
2019-06-20T06:35:04.157Z,25504.00
2019-06-20T06:36:04.206Z,29600.00
2019-06-20T06:37:04.251Z,27648.00
2019-06-20T06:38:04.310Z,29600.00
2019-06-20T06:39:04.384Z,26272.00
2019-06-20T06:40:04.392Z,23008.00
2019-06-20T06:41:04.445Z,29504.00
2019-06-20T06:42:04.498Z,21600.00
2019-06-20T06:43:04.541Z,22688.00
2019-06-20T06:44:04.587Z,26432.00
2019-06-20T06:45:04.634Z,26336.00
2019-06-20T06:46:04.682Z,28736.00
2019-06-20T06:47:04.735Z,27104.00
2019-06-20T06:48:04.782Z,27520.00
2019-06-20T06:49:04.829Z,34016.00
2019-06-20T06:50:04.877Z,30464.00
2019-06-20T06:51:04.922Z,21376.00
2019-06-20T06:52:04.984Z,23264.00
2019-06-20T06:53:05.019Z,17632.00
2019-06-20T06:54:05.070Z,16480.00
2019-06-20T06:55:05.114Z,15800.00
2019-06-20T06:56:05.163Z,24480.00
2019-06-20T06:57:05.207Z,29408.00
2019-06-20T06:58:05.275Z,33024.00
2019-06-20T06:59:05.302Z,36448.00
2019-06-20T07:00:05.355Z,27744.00
2019-06-20T07:01:05.393Z,32032.00
2019-06-20T07:02:05.446Z,40224.00
2019-06-20T07:03:05.488Z,41952.00
2019-06-20T07:04:05.535Z,33376.00
2019-06-20T07:05:05.584Z,35648.00
2019-06-20T07:06:05.628Z,44320.00
2019-06-20T07:07:05.676Z,25952.00
2019-06-20T07:08:05.726Z,34880.00
2019-06-20T07:09:05.786Z,25248.00
2019-06-20T07:10:05.821Z,23744.00
2019-06-20T07:11:05.868Z,26080.00
2019-06-20T07:12:05.927Z,26880.00
2019-06-20T07:13:05.966Z,41792.00
2019-06-20T07:14:06.013Z,29248.00
2019-06-20T07:15:06.064Z,44416.00
2019-06-20T07:16:06.111Z,49952.00
2019-06-20T07:17:06.159Z,47392.00
2019-06-20T07:18:06.205Z,48384.00
2019-06-20T07:19:06.255Z,51360.00
2019-06-20T07:20:06.303Z,52544.00
2019-06-20T07:21:06.352Z,37664.00
2019-06-20T07:22:06.404Z,44640.00
2019-06-20T07:23:06.450Z,33248.00
2019-06-20T07:24:06.500Z,47680.00
2019-06-20T07:25:06.555Z,47712.00
2019-06-20T07:26:06.599Z,21920.00
2019-06-20T07:27:06.652Z,20224.00
2019-06-20T07:28:06.700Z,19264.00
2019-06-20T07:29:06.749Z,18880.00
2019-06-20T07:30:06.803Z,18816.00
2019-06-20T07:31:06.851Z,18688.00
2019-06-20T07:32:06.895Z,18848.00
2019-06-20T07:33:06.944Z,19168.00
2019-06-20T07:34:06.994Z,19776.00
2019-06-20T07:35:07.041Z,20384.00
2019-06-20T07:36:07.090Z,20768.00
2019-06-20T07:37:07.135Z,20896.00
2019-06-20T07:38:07.183Z,20768.00
2019-06-20T07:39:07.231Z,20640.00
2019-06-20T07:40:07.274Z,20896.00
2019-06-20T07:41:07.320Z,21504.00
2019-06-20T07:42:07.365Z,21120.00
2019-06-20T07:43:07.415Z,20992.00
2019-06-20T07:44:07.464Z,21120.00
2019-06-20T07:45:07.506Z,23552.00
2019-06-20T07:46:07.551Z,21792.00
2019-06-20T07:47:17.108Z,22208.00
2019-06-20T07:48:07.648Z,23520.00
2019-06-20T07:49:07.689Z,22880.00
2019-06-20T07:50:07.732Z,22688.00
2019-06-20T07:51:07.776Z,22496.00
2019-06-20T07:52:07.822Z,24064.00
2019-06-20T07:53:07.878Z,23232.00
2019-06-20T07:54:07.912Z,28256.00
2019-06-20T07:55:07.963Z,40288.00
2019-06-20T07:56:09.511Z,56096.00
2019-06-20T07:57:08.055Z,52736.00
2019-06-20T07:58:08.093Z,40864.00
2019-06-20T07:59:08.187Z,56736.00
2019-06-20T08:00:08.185Z,56064.00
2019-06-20T08:01:08.232Z,55552.00
2019-06-20T08:02:08.279Z,54720.00
2019-06-20T08:03:08.320Z,55968.00
2019-06-20T08:04:08.373Z,54432.00
2019-06-20T08:05:08.418Z,54560.00
2019-06-20T08:06:08.471Z,53248.00
2019-06-20T08:07:08.515Z,54112.00
2019-06-20T08:08:08.564Z,54688.00
2019-06-20T08:09:08.618Z,55968.00
2019-06-20T08:10:08.686Z,55264.00
2019-06-20T08:11:08.708Z,55040.00
2019-06-20T08:12:08.762Z,55744.00
2019-06-20T08:13:08.811Z,54112.00
2019-06-20T08:14:08.863Z,54304.00
2019-06-20T08:15:15.037Z,56576.00
2019-06-20T08:16:08.975Z,55456.00
2019-06-20T08:17:09.018Z,54304.00
2019-06-20T08:18:09.094Z,54752.00
2019-06-20T08:19:09.125Z,57888.00
2019-06-20T08:20:09.169Z,58304.00
2019-06-20T08:21:09.221Z,56288.00
2019-06-20T08:22:09.273Z,57728.00
2019-06-20T08:23:09.326Z,51712.00
2019-06-20T08:24:09.456Z,57344.00
2019-06-20T08:25:09.431Z,53152.00
2019-06-20T08:26:09.490Z,54176.00
2019-06-20T08:27:09.539Z,62176.00
2019-06-20T08:28:09.592Z,63040.00
2019-06-20T08:29:20.313Z,64064.00
2019-06-20T08:30:09.763Z,48736.00
2019-06-20T08:31:09.749Z,51008.00
2019-06-20T08:32:09.802Z,40352.00
2019-06-20T08:33:12.122Z,58880.00
2019-06-20T08:34:09.910Z,59584.00
2019-06-20T08:35:09.961Z,61568.00
2019-06-20T08:36:10.016Z,61856.00
2019-06-20T08:37:10.067Z,66592.00
2019-06-20T08:38:10.120Z,64928.00
2019-06-20T08:39:10.173Z,62624.00
2019-06-20T08:40:10.226Z,63680.00
2019-06-20T08:41:10.280Z,62592.00
2019-06-20T08:42:10.331Z,63136.00
2019-06-20T08:43:10.386Z,65504.00
2019-06-20T08:44:10.438Z,63040.00
2019-06-20T08:45:10.490Z,63520.00
2019-06-20T08:46:10.625Z,64320.00
2019-06-20T08:47:10.596Z,64352.00
2019-06-20T08:48:10.651Z,65536.00
2019-06-20T08:49:10.703Z,65120.00
2019-06-20T08:50:10.756Z,64640.00
2019-06-20T08:51:14.347Z,63456.00
2019-06-20T08:52:10.866Z,65120.00
2019-06-20T08:53:10.916Z,66624.00
2019-06-20T08:54:10.970Z,66560.00
2019-06-20T08:55:11.030Z,66400.00
2019-06-20T08:56:11.080Z,64448.00
2019-06-20T08:57:11.133Z,64576.00
2019-06-20T08:58:11.185Z,64096.00
2019-06-20T08:59:23.924Z,63168.00
2019-06-20T09:00:11.312Z,64096.00
2019-06-20T09:01:11.354Z,61728.00
2019-06-20T09:02:11.399Z,61440.00
2019-06-20T09:03:11.455Z,63584.00
2019-06-20T09:04:11.511Z,63328.00
2019-06-20T09:05:11.564Z,61216.00
2019-06-20T09:06:11.618Z,63200.00
2019-06-20T09:07:11.682Z,60256.00
2019-06-20T09:08:12.133Z,59456.00
2019-06-20T09:09:11.783Z,59072.00
2019-06-20T09:10:11.850Z,58816.00
2019-06-20T09:11:11.887Z,59808.00
2019-06-20T09:12:11.943Z,61120.00
2019-06-20T09:13:11.996Z,62240.00
2019-06-20T09:14:12.046Z,62688.00
2019-06-20T09:15:12.103Z,63040.00
2019-06-20T09:16:24.111Z,62464.00
2019-06-20T09:17:12.215Z,62368.00
2019-06-20T09:18:12.270Z,63328.00
2019-06-20T09:19:12.319Z,65504.00
2019-06-20T09:20:12.385Z,44384.00
2019-06-20T09:21:12.429Z,56480.00
2019-06-20T09:22:12.478Z,31104.00
2019-06-20T09:23:12.535Z,30368.00
2019-06-20T09:24:12.588Z,59488.00
2019-06-20T09:25:12.655Z,45792.00
2019-06-20T09:26:12.694Z,47232.00
2019-06-20T09:27:12.748Z,31264.00
2019-06-20T09:28:12.799Z,29920.00
2019-06-20T09:29:12.856Z,31776.00
2019-06-20T09:30:12.962Z,27584.00
2019-06-20T09:31:12.960Z,26304.00
2019-06-20T09:32:13.015Z,27360.00
2019-06-20T09:33:13.077Z,28544.00
2019-06-20T09:34:13.128Z,28832.00
2019-06-20T09:35:13.179Z,28032.00
2019-06-20T09:36:13.212Z,29440.00
2019-06-20T09:37:13.264Z,29280.00
2019-06-20T09:38:13.319Z,31392.00
2019-06-20T09:39:13.360Z,51104.00
2019-06-20T09:40:13.427Z,82048.00
2019-06-20T09:41:13.459Z,49824.00
2019-06-20T09:42:13.507Z,50720.00
2019-06-20T09:43:26.719Z,42688.00
2019-06-20T09:44:13.608Z,49152.00
2019-06-20T09:45:13.661Z,37760.00
2019-06-20T09:46:13.704Z,35584.00
2019-06-20T09:47:13.752Z,34720.00
2019-06-20T09:48:13.804Z,34464.00
2019-06-20T09:49:13.852Z,32416.00
2019-06-20T09:50:13.897Z,32736.00
2019-06-20T09:51:13.947Z,33856.00
2019-06-20T09:52:13.998Z,43232.00
2019-06-20T09:53:14.046Z,34272.00
2019-06-20T09:54:14.094Z,32960.00
2019-06-20T09:55:14.141Z,32960.00
2019-06-20T09:56:14.187Z,33152.00
2019-06-20T09:57:14.235Z,32768.00
2019-06-20T09:58:14.282Z,33536.00
2019-06-20T09:59:27.154Z,45408.00
2019-06-20T10:00:14.381Z,38592.00
2019-06-20T10:01:14.425Z,37952.00
2019-06-20T10:02:14.473Z,40128.00
2019-06-20T10:03:14.519Z,44960.00
2019-06-20T10:04:14.569Z,38272.00
2019-06-20T10:05:14.616Z,35968.00
2019-06-20T10:06:14.901Z,35712.00
2019-06-20T10:07:14.711Z,36640.00
2019-06-20T10:08:14.781Z,62496.00
2019-06-20T10:09:14.806Z,63680.00
2019-06-20T10:10:14.857Z,73472.00
2019-06-20T10:11:14.901Z,41248.00
2019-06-20T10:12:14.948Z,64448.00
2019-06-20T10:13:14.997Z,83328.00
2019-06-20T10:14:15.048Z,83968.00
2019-06-20T10:15:15.092Z,81952.00
2019-06-20T10:16:15.141Z,86432.00
2019-06-20T10:17:15.192Z,85760.00
2019-06-20T10:18:15.243Z,84704.00
2019-06-20T10:19:15.289Z,87008.00
2019-06-20T10:20:15.350Z,89664.00
2019-06-20T10:21:15.392Z,54176.00
2019-06-20T10:22:15.445Z,51520.00
2019-06-20T10:23:15.493Z,46112.00
2019-06-20T10:24:15.550Z,53088.00
2019-06-20T10:25:15.597Z,66880.00
2019-06-20T10:26:15.648Z,70752.00
2019-06-20T10:27:15.700Z,38592.00
2019-06-20T10:28:15.756Z,63200.00
2019-06-20T10:29:15.805Z,80064.00
2019-06-20T10:30:15.857Z,79904.00
2019-06-20T10:31:15.909Z,65440.00
2019-06-20T10:32:15.965Z,32992.00
2019-06-20T10:33:16.023Z,33152.00
2019-06-20T10:34:16.068Z,37184.00
2019-06-20T10:35:16.122Z,46944.00
2019-06-20T10:36:16.175Z,69152.00
2019-06-20T10:37:16.228Z,79616.00
2019-06-20T10:38:16.276Z,78752.00
2019-06-20T10:39:16.333Z,77440.00
2019-06-20T10:40:16.385Z,50464.00
2019-06-20T10:41:16.437Z,33152.00
2019-06-20T10:42:16.489Z,30144.00
2019-06-20T10:43:16.542Z,30336.00
2019-06-20T10:44:16.596Z,35648.00
2019-06-20T10:45:16.647Z,36480.00
2019-06-20T10:46:16.703Z,34272.00
2019-06-20T10:47:31.349Z,43168.00
2019-06-20T10:48:16.804Z,61600.00
2019-06-20T10:49:16.855Z,38016.00
2019-06-20T10:50:16.903Z,52160.00
2019-06-20T10:51:16.953Z,47584.00
2019-06-20T10:52:17.005Z,32800.00
2019-06-20T10:53:17.058Z,31264.00
2019-06-20T10:54:17.106Z,30048.00
2019-06-20T10:55:17.167Z,29216.00
2019-06-20T10:56:17.209Z,28768.00
2019-06-20T10:57:17.262Z,29344.00
2019-06-20T10:58:17.309Z,30336.00
2019-06-20T10:59:17.364Z,32288.00
2019-06-20T11:00:30.170Z,46176.00
2019-06-20T11:01:17.461Z,61504.00
2019-06-20T11:02:17.512Z,66560.00
2019-06-20T11:03:17.583Z,69024.00
2019-06-20T11:04:17.609Z,69504.00
2019-06-20T11:05:17.681Z,70752.00
2019-06-20T11:06:17.708Z,70912.00
2019-06-20T11:07:17.760Z,70144.00
2019-06-20T11:08:17.823Z,68448.00
2019-06-20T11:09:17.862Z,75712.00
2019-06-20T11:10:17.910Z,72032.00
2019-06-20T11:11:17.960Z,73280.00
2019-06-20T11:12:18.011Z,74656.00
2019-06-20T11:13:18.066Z,80160.00
2019-06-20T11:14:18.113Z,80928.00
2019-06-20T11:15:18.168Z,68800.00
2019-06-20T11:16:18.225Z,53376.00
2019-06-20T11:17:18.272Z,56000.00
2019-06-20T11:18:18.421Z,43104.00
2019-06-20T11:19:18.450Z,37920.00
2019-06-20T11:20:18.427Z,70592.00
2019-06-20T11:21:18.480Z,38976.00
2019-06-20T11:22:18.534Z,41056.00
2019-06-20T11:23:18.585Z,78272.00
2019-06-20T11:24:18.636Z,79424.00
2019-06-20T11:25:19.545Z,79552.00
2019-06-20T11:26:18.740Z,73120.00
2019-06-20T11:27:18.805Z,71904.00
2019-06-20T11:28:18.846Z,49216.00
2019-06-20T11:29:18.896Z,61728.00
2019-06-20T11:30:18.951Z,61856.00
2019-06-20T11:31:19.008Z,59424.00
2019-06-20T11:32:19.059Z,58208.00
2019-06-20T11:33:19.145Z,65920.00
2019-06-20T11:34:19.160Z,55104.00
2019-06-20T11:35:19.212Z,50496.00
2019-06-20T11:36:19.268Z,43872.00
2019-06-20T11:37:19.317Z,46784.00
2019-06-20T11:38:19.374Z,48992.00
2019-06-20T11:39:19.423Z,52384.00
2019-06-20T11:40:19.476Z,52864.00
2019-06-20T11:41:19.538Z,60800.00
2019-06-20T11:42:19.580Z,64032.00
2019-06-20T11:43:19.641Z,71616.00
2019-06-20T11:44:19.686Z,81440.00
2019-06-20T11:45:19.742Z,71584.00
2019-06-20T11:46:19.798Z,67424.00
2019-06-20T11:47:20.627Z,63392.00
2019-06-20T11:48:19.898Z,71712.00
2019-06-20T11:49:19.953Z,67136.00
2019-06-20T11:50:20.003Z,68288.00
2019-06-20T11:51:20.061Z,80608.00
2019-06-20T11:52:20.112Z,79136.00
2019-06-20T11:53:20.172Z,88928.00
2019-06-20T11:54:20.218Z,84224.00
2019-06-20T11:55:20.277Z,54880.00
2019-06-20T11:56:20.326Z,77312.00
2019-06-20T11:57:20.381Z,63520.00
2019-06-20T11:58:23.424Z,35392.00
2019-06-20T11:59:20.487Z,25216.00
2019-06-20T12:00:20.546Z,31552.00